• Join FlightAware (Why Join?)
  • Login
  • US Flag 
07:41AM EDT


 

Airport Tracker/Info


-or-


 

Live Flight TrackerFlight Track Log ✈ GJS3706 ✈ 09-Jul-2013 ✈ KDEN - KTUL

Flight Track Log - Related Links

Times and Time Zones

All times are in EDT time to prevent confusion due to time zone crossing. See the GJS3706 flight status page for this flight to view local times or setup timezone preferences in your user account.

Time Position Orientation Groundspeed Altitude Reporting Facility
EDT Latitude Longitude Course Direction KTS MPH feet Rate Location/Type
07:25PM 39.8167 -104.6333 150° Southeast 192 221 6,700  Level Denver TRACON
07:26PM 39.7500 -104.5833 150° Southeast 254 292 8,600 1,680 Climbing Denver TRACON
07:27PM 39.7033 -104.5253 136° Southeast 273 314 10,100 1,380 Climbing Denver Center
07:28PM 39.6600 -104.4322 121° Southeast 313 360 11,400 1,260 Climbing Denver Center
07:29PM 39.6269 -104.3069 109° East 361 415 12,800 1,320 Climbing Denver Center
07:30PM 39.5706 -104.2042 125° Southeast 369 425 14,200 1,440 Climbing Denver Center
07:31PM 39.6075 -104.0672 71° East 377 434 15,800 1,680 Climbing Denver Center
07:32PM 39.6414 -103.9339 72° East 385 443 17,700 1,560 Climbing Denver Center
07:33PM 39.6742 -103.7842 74° East 401 461 19,100 1,200 Climbing Denver Center
07:34PM 39.7042 -103.6425 75° East 407 468 20,200 1,200 Climbing Denver Center
07:35PM 39.7036 -103.4897 90° East 438 504 21,600 1,080 Climbing Denver Center
07:36PM 39.6397 -103.3556 122° Southeast 435 501 22,500 780 Climbing Denver Center
07:37PM 39.5869 -103.2072 115° Southeast 453 521 23,300 840 Climbing Denver Center
07:38PM 39.5239 -103.0603 119° Southeast 465 535 24,300 900 Climbing Denver Center
07:39PM 39.4531 -102.8775 117° Southeast 473 544 25,200 900 Climbing Denver Center
07:40PM 39.3928 -102.7242 117° Southeast 479 551 26,200 960 Climbing Denver Center
07:41PM 39.3303 -102.5617 116° Southeast 479 551 27,300 960 Climbing Denver Center
07:42PM 39.2714 -102.4153 117° Southeast 480 552 28,200 840 Climbing Denver Center
07:43PM 39.2028 -102.2422 117° Southeast 485 558 29,100 780 Climbing Denver Center
07:44PM 39.1436 -102.0919 117° Southeast 491 565 29,900 780 Climbing Denver Center
07:45PM 39.0467 -101.9428 130° Southeast 495 570 30,800 720 Climbing Denver Center
07:46PM 38.9489 -101.8344 139° Southeast 486 559 31,500 660 Climbing Denver Center
07:47PM 38.8500 -101.7269 140° Southeast 488 562 32,200 720 Climbing Denver Center
07:48PM 38.7328 -101.5981 139° Southeast 494 568 33,000 720 Climbing Denver Center
07:50PM 38.5981 -101.4525 140° Southeast 498 573 33,900 660 Climbing Denver Center
07:51PM 38.4975 -101.3442 140° Southeast 495 570 34,600 780 Climbing Denver Center
07:52PM 38.3825 -101.2194 140° Southeast 488 562 35,600 900 Climbing Denver Center
07:53PM 38.2839 -101.1139 140° Southeast 483 556 36,500 840 Climbing Denver Center
07:53PM 38.2189 -101.0439 140° Southeast 480 552 37,000 300 Climbing Kansas City Center
07:54PM 38.1211 -100.9383 140° Southeast 480 552 37,000  Level Kansas City Center
07:55PM 38.0053 -100.8150 140° Southeast 483 556 37,000  Level Kansas City Center
07:56PM 37.9342 -100.6822 124° Southeast 475 547 37,000  Level Kansas City Center
07:57PM 37.8842 -100.5353 113° Southeast 472 543 37,000  Level Kansas City Center
07:58PM 37.8258 -100.3622 113° Southeast 474 545 37,100  Climbing Kansas City Center
07:59PM 37.7733 -100.2131 114° Southeast 479 551 37,000 -60 Descending Kansas City Center
08:00PM 37.7139 -100.0353 113° Southeast 489 563 37,000  Level Kansas City Center
08:01PM 37.6608 -99.8822 114° Southeast 494 568 37,000  Level Kansas City Center
08:03PM 37.5994 -99.7042 113° Southeast 495 570 37,000  Level Kansas City Center
08:04PM 37.5469 -99.5517 113° Southeast 495 570 37,000  Level Kansas City Center
08:05PM 37.4878 -99.3806 114° Southeast 496 571 37,000  Level Kansas City Center
08:06PM 37.4319 -99.2228 114° Southeast 495 570 37,000  Level Kansas City Center
08:07PM 37.3761 -99.0639 114° Southeast 495 570 37,000  Level Kansas City Center
08:08PM 37.3208 -98.9058 114° Southeast 494 568 37,000  Level Kansas City Center
08:09PM 37.2644 -98.7500 114° Southeast 491 565 37,000  Level Kansas City Center
08:10PM 37.2075 -98.5919 114° Southeast 495 570 37,000  Level Kansas City Center
08:11PM 37.1408 -98.4047 114° Southeast 492 566 37,000 -120 Level Kansas City Center
08:12PM 37.0839 -98.2469 114° Southeast 495 570 36,800 -780 Descending Kansas City Center
08:13PM 37.0258 -98.0897 115° Southeast 495 570 35,500 -1,380 Descending Kansas City Center
08:14PM 36.9689 -97.9314 114° Southeast 498 573 34,000 -1,500 Descending Kansas City Center
08:15PM 36.9106 -97.7719 115° Southeast 501 577 32,500 -1,680 Descending Kansas City Center
08:16PM 36.8536 -97.6144 114° Southeast 501 577 30,600 -2,160 Descending Kansas City Center
08:17PM 36.7978 -97.4569 114° Southeast 498 573 28,100 -2,580 Descending Kansas City Center
08:18PM 36.7372 -97.2900 114° Southeast 480 552 25,300 -2,580 Descending Kansas City Center
08:19PM 36.6861 -97.1539 115° Southeast 452 520 22,800 -2,640 Descending Kansas City Center
08:20PM 36.6314 -97.0136 116° Southeast 400 460 19,900 -2,760 Descending Kansas City Center
08:21PM 36.5844 -96.8914 116° Southeast 393 452 17,200 -2,580 Descending Kansas City Center
08:22PM 36.5381 -96.7675 115° Southeast 381 438 14,700 -2,400 Descending Kansas City Center
08:23PM 36.4967 -96.6633 116° Southeast 366 421 12,300 -2,100 Descending Kansas City Center
08:24PM 36.4661 -96.5533 109° East 346 398 10,400 -1,620 Descending Kansas City Center
08:25PM 36.4425 -96.4531 106° East 314 361 9,000 -1,500 Descending Kansas City Center
08:26PM 36.4214 -96.3572 105° East 295 339 7,300 -1,860 Descending Kansas City Center
08:27PM 36.3939 -96.2442 107° East 286 329 5,200 -1,620 Descending Kansas City Center
08:28PM 36.3731 -96.1514 106° East 282 325 4,000 -840 Descending Kansas City Center
08:29PM 36.3472 -96.0483 107° East 260 299 3,500 -540 Descending Kansas City Center
08:30PM 36.3314 -95.9831 107° East 234 269 2,900 -420 Descending Kansas City Center
08:31PM 36.3175 -95.9200 105° East 175 201 2,700 -420 Descending Kansas City Center
08:32PM 36.2933 -95.8803 127° Southeast 174 200 2,100 -720 Descending Kansas City Center
08:33PM 36.2497 -95.8789 179° South 143 165 1,300 -720 Descending Kansas City Center
08:35PM 36.2133 -95.8817 184° South 135 155 700 -600 Descending Kansas City Center
08:36PM 36.1984 -95.8881 188° South  Level Estimated
08:43PM 36.1984 -95.8881 188° South  Level Estimated